Hayward, WI

12:47 AM CDT on August 28, 2016 (GMT -0500)
Sawyer County | | Change Station

Elev 1214 ft 46.02 °N, 91.45 °W | Updated 29 minutes ago

Overcast
Overcast
62 °F
Feels Like 62 °F
N
0
Wind Variable Wind from North

Today
High -- | Low -- °F
--% Chance of Precip.
Yesterday
High -- | Low -- °F
Precip. -- in
Pressure 30.09 in
Visibility 10.0 miles
Clouds Mostly Cloudy 600 ft
Overcast 2100 ft
Dew Point 61 °F
Humidity 96%
Rainfall 0.00 in
Snow Depth Not available.
6:22 AM 7:50 PM
Waning Crescent, 18% visible
SPECI KHYR 280518Z AUTO 00000KT 10SM BKN006 OVC021 17/16 A3009 RMK AO2 CIG 003V008 T01670161
Pressure 30.09 in
Visibility 10.0 miles
Clouds Mostly Cloudy 600 ft
Overcast 2100 ft
Dew Point 61 °F
Humidity 96%
Rainfall 0.00 in
Snow Depth Not available.
6:22 AM 7:50 PM
Waning Crescent, 18% visible
SPECI KHYR 280518Z AUTO 00000KT 10SM BKN006 OVC021 17/16 A3009 RMK AO2 CIG 003V008 T01670161

10-Day Weather Forecast

Almanac

Astronomy

Aug. 28, 2016 Rise Set
Actual Time
Civil Twilight
Nautical Twilight
Astronomical Twilight
Moon
Length of Visible Light
Length of Day
Tomorrow will be .
, % of the Moon is Illuminated

Today's Extremes

State Highs State Lows

Community

WunderPhotos

Upload Photos

1,935,533 photos uploaded!

WunderBlog® & News

Nearby

Air Quality

  Air Quality AQ Index Pollutant
Not available.

Snow Depth

Station Depth Elevation

Earthquake Activity

City Distance Mag. Time & Date
Minimum magnitude displayed is 2.5.

Coastal Water Temperatures

Place Temperature

Stations

Nearby Weather Stations

Station Location Temp. Windchill Dew Point Humidity Wind Precip. Elev Updated Type
                   

Watches & Warnings

There are currently no watches in effect.